Terminal Aerodrome Forecast
Issued by NWS Denver/Boulder, CO

Home | Current Version | Previous Version | Text Only | Print | Product List | Glossary On
Versions: 1 2 3 4 5 6 7 8 9 10 11 12 13 14 15 16 17 18 19 20 21 22 23 24 25 26 27 28 29 30 31 32 33 34 35 36 37 38 39 40
000
FTUS45 KBOU 240440 AAE
TAFDEN
TAF AMD
KDEN 240440Z 2405/2506 27014G25KT P6SM BKN120 OVC150
     FM240600 25012G20KT P6SM BKN120 OVC150
     FM240800 21007KT P6SM OVC150
     FM241500 18010KT P6SM FEW080 OVC150
     FM241800 11010KT P6SM FEW080 OVC150 PROB30 2420/2424 VRB15G25KT
      P6SM -TSRA BKN060CB
     FM250000 09012KT P6SM SCT040 OVC060
     FM250300 15008KT P6SM SCT040 OVC060=

USA.gov is the U.S. government's official web portal to all federal, state and local government web resources and services.